createdAt,value
2022-10-23T00:00:49.306Z,17.13
2022-10-23T00:03:15.858Z,17.25
2022-10-23T00:05:47.280Z,17.30
2022-10-23T00:08:15.934Z,17.22
2022-10-23T00:10:43.305Z,16.74
2022-10-23T00:13:10.687Z,16.80
2022-10-23T00:15:38.555Z,16.91
2022-10-23T00:18:07.580Z,16.89
2022-10-23T00:20:34.428Z,16.50
2022-10-23T00:23:01.016Z,16.20
2022-10-23T00:25:28.597Z,16.23
2022-10-23T00:27:55.377Z,16.61
2022-10-23T00:30:24.083Z,16.78
2022-10-23T00:32:51.588Z,17.48
2022-10-23T00:35:22.010Z,17.32
2022-10-23T00:37:49.041Z,17.13
2022-10-23T00:40:19.477Z,17.49
2022-10-23T00:42:49.877Z,17.64
2022-10-23T00:45:17.129Z,17.92
2022-10-23T00:47:44.525Z,17.87
2022-10-23T00:50:12.757Z,17.83
2022-10-23T00:52:40.481Z,17.68
2022-10-23T00:55:08.664Z,17.85
2022-10-23T00:57:36.186Z,17.66
2022-10-23T01:00:03.467Z,17.79
2022-10-23T01:02:29.935Z,17.46
2022-10-23T01:04:56.723Z,17.49
2022-10-23T01:07:23.729Z,17.65
2022-10-23T01:09:50.689Z,17.51
2022-10-23T01:12:19.348Z,17.42
2022-10-23T01:14:47.341Z,17.04
2022-10-23T01:17:17.022Z,17.67
2022-10-23T01:19:44.387Z,18.02
2022-10-23T01:22:11.420Z,18.08
2022-10-23T01:24:38.360Z,18.08
2022-10-23T01:27:06.056Z,17.71
2022-10-23T01:29:32.606Z,17.40
2022-10-23T01:31:59.294Z,17.37
2022-10-23T01:34:26.706Z,17.39
2022-10-23T01:36:54.058Z,17.15
2022-10-23T01:39:21.479Z,16.90
2022-10-23T01:41:48.128Z,16.69
2022-10-23T01:44:14.633Z,16.45
2022-10-23T01:46:43.138Z,16.69
2022-10-23T01:49:14.774Z,17.04
2022-10-23T01:51:43.147Z,16.94
2022-10-23T01:54:10.076Z,17.59
2022-10-23T01:56:36.823Z,17.71
2022-10-23T01:59:05.317Z,17.67
2022-10-23T02:01:32.307Z,17.22
2022-10-23T02:06:26.129Z,17.85
2022-10-23T02:08:53.123Z,17.67
2022-10-23T02:11:19.950Z,17.60
2022-10-23T02:13:46.569Z,17.75
2022-10-23T02:16:13.459Z,17.54
2022-10-23T02:18:42.945Z,16.70
2022-10-23T02:21:12.899Z,17.09
2022-10-23T02:23:39.631Z,17.37
2022-10-23T02:26:08.641Z,17.77
2022-10-23T02:28:38.519Z,17.22
2022-10-23T02:31:07.007Z,17.07
2022-10-23T02:33:35.774Z,17.56
2022-10-23T02:36:12.876Z,17.62
2022-10-23T02:38:40.446Z,17.12
2022-10-23T02:41:11.122Z,16.73
2022-10-23T02:43:38.070Z,17.16
2022-10-23T02:46:06.836Z,17.00
2022-10-23T02:48:35.676Z,16.54
2022-10-23T02:51:02.628Z,16.21
2022-10-23T02:53:29.572Z,16.71
2022-10-23T02:55:57.202Z,16.90
2022-10-23T02:58:24.192Z,16.68
2022-10-23T03:00:51.157Z,16.82
2022-10-23T03:03:18.039Z,17.20
2022-10-23T03:05:45.835Z,17.22
2022-10-23T03:08:12.834Z,17.31
2022-10-23T03:10:39.891Z,16.93
2022-10-23T03:13:07.216Z,16.99
2022-10-23T03:15:33.977Z,16.49
2022-10-23T03:18:05.235Z,16.22
2022-10-23T03:20:33.501Z,16.20
2022-10-23T03:23:03.727Z,16.06
2022-10-23T03:25:33.506Z,16.23
2022-10-23T03:28:03.244Z,16.36
2022-10-23T03:30:30.063Z,16.55
2022-10-23T03:32:57.713Z,16.65
2022-10-23T03:35:24.330Z,16.66
2022-10-23T03:37:51.828Z,16.54
2022-10-23T03:40:21.323Z,16.84
2022-10-23T03:42:48.696Z,16.16
2022-10-23T03:45:18.995Z,16.50
2022-10-23T03:47:45.954Z,16.54
2022-10-23T03:50:17.299Z,16.70
2022-10-23T03:52:44.254Z,15.96
2022-10-23T03:55:11.071Z,15.74
2022-10-23T03:57:38.342Z,15.39
2022-10-23T04:00:05.167Z,15.27
2022-10-23T04:02:32.045Z,15.65
2022-10-23T04:05:03.241Z,15.84
2022-10-23T04:07:29.996Z,15.99
2022-10-23T04:09:58.677Z,15.98
2022-10-23T04:12:35.876Z,15.92
2022-10-23T04:15:03.323Z,15.92
2022-10-23T04:17:36.220Z,16.08
2022-10-23T04:20:02.879Z,15.99
2022-10-23T04:22:30.365Z,15.87
2022-10-23T04:24:57.631Z,15.49
2022-10-23T04:27:24.334Z,15.58
2022-10-23T04:29:54.252Z,16.14
2022-10-23T04:32:23.657Z,16.17
2022-10-23T04:34:50.377Z,16.04
2022-10-23T04:37:18.129Z,15.90
2022-10-23T04:39:45.100Z,16.45
2022-10-23T04:42:12.027Z,15.96
2022-10-23T04:44:39.004Z,16.01
2022-10-23T04:47:05.794Z,16.58
2022-10-23T04:49:32.740Z,16.37
2022-10-23T04:51:59.613Z,16.16
2022-10-23T04:54:26.527Z,15.40
2022-10-23T04:56:53.380Z,15.68
2022-10-23T04:59:20.563Z,16.37
2022-10-23T05:01:48.255Z,16.81
2022-10-23T05:04:15.549Z,16.94
2022-10-23T05:06:42.562Z,16.68
2022-10-23T05:09:09.221Z,16.03
2022-10-23T05:11:36.550Z,15.70
2022-10-23T05:14:03.422Z,16.01
2022-10-23T05:16:32.271Z,15.93
2022-10-23T05:19:03.071Z,16.06
2022-10-23T05:21:30.073Z,16.02
2022-10-23T05:23:56.804Z,16.04
2022-10-23T05:26:24.626Z,16.39
2022-10-23T05:28:51.321Z,16.28
2022-10-23T05:31:18.334Z,16.43
2022-10-23T05:33:46.052Z,16.57
2022-10-23T05:36:12.583Z,16.54
2022-10-23T05:38:40.084Z,16.40
2022-10-23T05:41:07.464Z,16.44
2022-10-23T05:43:34.385Z,16.26
2022-10-23T05:46:02.173Z,16.32
2022-10-23T05:48:34.733Z,16.43
2022-10-23T05:51:01.731Z,16.36
2022-10-23T05:53:30.172Z,16.53
2022-10-23T05:55:56.901Z,16.71
2022-10-23T05:58:24.286Z,16.60
2022-10-23T06:00:58.392Z,16.15
2022-10-23T06:03:25.989Z,16.29
2022-10-23T06:05:53.591Z,16.24
2022-10-23T06:08:20.749Z,15.68
2022-10-23T06:10:48.574Z,15.92
2022-10-23T06:13:15.248Z,16.41
2022-10-23T06:15:42.395Z,16.76
2022-10-23T06:18:09.474Z,17.11
2022-10-23T06:20:36.433Z,17.27
2022-10-23T06:23:03.368Z,17.17
2022-10-23T06:25:30.933Z,16.81
2022-10-23T06:28:04.461Z,16.72
2022-10-23T06:30:32.276Z,15.85
2022-10-23T06:33:03.311Z,16.12
2022-10-23T06:35:34.713Z,16.74
2022-10-23T06:38:01.733Z,16.60
2022-10-23T06:40:29.358Z,16.27
2022-10-23T06:42:58.080Z,15.60
2022-10-23T06:45:24.959Z,16.10
2022-10-23T06:47:52.026Z,16.27
2022-10-23T06:50:19.185Z,16.35
2022-10-23T06:52:47.664Z,15.94
2022-10-23T06:55:15.100Z,16.70
2022-10-23T06:57:42.925Z,16.83
2022-10-23T07:00:09.951Z,17.20
2022-10-23T07:02:37.199Z,17.52
2022-10-23T07:05:07.641Z,17.76
2022-10-23T07:07:36.498Z,17.94
2022-10-23T07:10:03.942Z,18.20
2022-10-23T07:12:30.806Z,18.22
2022-10-23T07:14:57.734Z,18.08
2022-10-23T07:17:26.569Z,18.37
2022-10-23T07:19:54.310Z,18.46
2022-10-23T07:22:21.127Z,18.54
2022-10-23T07:24:48.147Z,18.17
2022-10-23T07:27:14.907Z,18.48
2022-10-23T07:29:43.421Z,18.57
2022-10-23T07:32:10.166Z,18.81
2022-10-23T07:34:44.547Z,18.93
2022-10-23T07:37:12.183Z,18.87
2022-10-23T07:39:39.170Z,18.42
2022-10-23T07:42:08.042Z,18.44
2022-10-23T07:44:35.126Z,18.23
2022-10-23T07:47:02.819Z,18.66
2022-10-23T07:49:32.881Z,19.06
2022-10-23T07:51:59.915Z,19.28
2022-10-23T07:54:26.687Z,19.11
2022-10-23T07:56:53.802Z,19.38
2022-10-23T07:59:21.067Z,19.39
2022-10-23T08:01:49.545Z,19.61
2022-10-23T08:04:20.116Z,19.40
2022-10-23T08:06:47.054Z,19.35
2022-10-23T08:09:13.897Z,19.59
2022-10-23T08:11:40.924Z,19.17
2022-10-23T08:14:07.937Z,19.33
2022-10-23T08:16:34.705Z,19.53
2022-10-23T08:19:01.373Z,19.63
2022-10-23T08:21:27.929Z,19.66
2022-10-23T08:23:54.762Z,19.59
2022-10-23T08:26:21.559Z,19.74
2022-10-23T08:28:49.963Z,19.54
2022-10-23T08:31:17.202Z,19.81
2022-10-23T08:33:44.715Z,19.92
2022-10-23T08:36:13.616Z,19.71
2022-10-23T08:38:40.559Z,19.87
2022-10-23T08:41:07.855Z,20.21
2022-10-23T08:43:34.705Z,20.02
2022-10-23T08:46:03.342Z,19.97
2022-10-23T08:48:32.648Z,19.81
2022-10-23T08:51:00.135Z,19.81
2022-10-23T08:53:27.166Z,20.03
2022-10-23T08:55:54.160Z,20.29
2022-10-23T08:58:22.017Z,20.51
2022-10-23T09:00:49.056Z,20.38
2022-10-23T09:03:16.045Z,20.31
2022-10-23T09:05:42.964Z,20.49
2022-10-23T09:08:10.199Z,20.68
2022-10-23T09:10:37.730Z,20.74
2022-10-23T09:13:07.556Z,20.77
2022-10-23T09:15:35.146Z,20.84
2022-10-23T09:18:02.271Z,20.96
2022-10-23T09:20:28.860Z,20.97
2022-10-23T09:22:56.031Z,21.03
2022-10-23T09:25:24.179Z,21.02
2022-10-23T09:27:53.287Z,21.04
2022-10-23T09:30:22.871Z,20.80
2022-10-23T09:32:49.737Z,20.41
2022-10-23T09:35:18.366Z,20.22
2022-10-23T09:37:45.566Z,20.53
2022-10-23T09:40:12.654Z,20.64
2022-10-23T09:42:39.476Z,20.83
2022-10-23T09:45:10.367Z,20.34
2022-10-23T09:47:38.109Z,20.70
2022-10-23T09:50:05.132Z,21.06
2022-10-23T09:52:33.129Z,20.92
2022-10-23T09:55:02.001Z,20.57
2022-10-23T09:57:28.996Z,20.54
2022-10-23T09:59:56.064Z,20.57
2022-10-23T10:02:23.698Z,20.50
2022-10-23T10:04:52.214Z,19.95
2022-10-23T10:07:20.335Z,19.93
2022-10-23T10:09:51.662Z,20.34
2022-10-23T10:12:19.142Z,20.82
2022-10-23T10:14:45.772Z,20.74
2022-10-23T10:17:13.364Z,20.90
2022-10-23T10:19:41.910Z,21.04
2022-10-23T10:22:10.880Z,20.76
2022-10-23T10:24:38.311Z,21.04
2022-10-23T10:27:04.901Z,21.21
2022-10-23T10:29:31.760Z,21.07
2022-10-23T10:31:59.414Z,21.08
2022-10-23T10:34:26.252Z,21.12
2022-10-23T10:36:53.173Z,20.97
2022-10-23T10:39:25.468Z,20.24
2022-10-23T10:41:56.039Z,20.86
2022-10-23T10:56:30.412Z,21.11
2022-10-23T10:58:57.392Z,21.26
2022-10-23T11:01:25.078Z,20.83
2022-10-23T11:03:56.945Z,20.90
2022-10-23T11:06:23.552Z,21.16
2022-10-23T11:08:58.068Z,21.41
2022-10-23T11:11:32.707Z,21.61
2022-10-23T11:13:59.494Z,21.38
2022-10-23T11:16:26.337Z,21.24
2022-10-23T11:18:53.990Z,21.31
2022-10-23T11:21:21.245Z,21.70
2022-10-23T11:23:48.383Z,20.57
2022-10-23T11:26:19.686Z,20.99
2022-10-23T11:28:47.036Z,21.32
2022-10-23T11:31:18.611Z,21.29
2022-10-23T11:33:47.179Z,21.27
2022-10-23T11:38:56.032Z,21.53
2022-10-23T11:41:26.837Z,21.54
2022-10-23T11:43:55.993Z,21.19
2022-10-23T11:46:23.041Z,21.34
2022-10-23T11:48:50.595Z,21.60
2022-10-23T11:51:18.165Z,21.30
2022-10-23T11:53:45.038Z,21.34
2022-10-23T11:56:15.390Z,21.32
2022-10-23T11:58:42.903Z,20.54
2022-10-23T12:01:12.184Z,20.62
2022-10-23T12:03:38.898Z,21.00
2022-10-23T12:06:06.807Z,20.37
2022-10-23T12:08:33.479Z,20.16
2022-10-23T12:11:02.814Z,20.66
2022-10-23T12:13:31.362Z,19.69
2022-10-23T12:16:00.748Z,19.97
2022-10-23T12:18:28.945Z,20.84
2022-10-23T12:20:57.097Z,20.77
2022-10-23T12:23:26.046Z,20.04
2022-10-23T12:25:53.925Z,20.45
2022-10-23T12:28:21.751Z,20.98
2022-10-23T12:30:49.242Z,20.54
2022-10-23T12:33:17.319Z,20.90
2022-10-23T12:35:48.935Z,20.86
2022-10-23T12:38:16.086Z,21.52
2022-10-23T12:43:26.342Z,21.34
2022-10-23T12:45:53.388Z,21.20
2022-10-23T12:48:20.140Z,21.25
2022-10-23T12:53:57.161Z,20.50
2022-10-23T12:56:29.523Z,20.90
2022-10-23T12:59:00.649Z,21.26
2022-10-23T13:01:27.914Z,21.07
2022-10-23T13:03:57.727Z,21.12
2022-10-23T13:06:25.355Z,21.01
2022-10-23T13:08:53.255Z,20.74
2022-10-23T13:11:20.780Z,20.99
2022-10-23T13:13:50.834Z,20.97
2022-10-23T13:16:20.936Z,21.18
2022-10-23T13:18:48.180Z,21.30
2022-10-23T13:21:15.394Z,21.10
2022-10-23T13:23:53.494Z,21.33
2022-10-23T13:26:24.620Z,21.13
2022-10-23T13:28:55.032Z,21.29
2022-10-23T13:31:32.707Z,21.34
2022-10-23T13:34:01.538Z,21.32
2022-10-23T13:39:13.374Z,20.09
2022-10-23T13:41:40.189Z,20.27
2022-10-23T13:44:07.612Z,20.45
2022-10-23T13:46:35.698Z,20.24
2022-10-23T13:49:08.318Z,20.84
2022-10-23T13:51:38.808Z,20.97
2022-10-23T13:54:10.295Z,21.03
2022-10-23T13:56:38.028Z,21.22
2022-10-23T13:59:07.606Z,21.28
2022-10-23T14:01:39.227Z,21.17
2022-10-23T14:04:08.287Z,21.05
2022-10-23T14:09:15.888Z,20.85
2022-10-23T14:11:50.019Z,20.87
2022-10-23T14:14:17.558Z,21.05
2022-10-23T14:22:04.239Z,21.33
2022-10-23T14:24:31.254Z,21.44
2022-10-23T14:27:00.175Z,21.52
2022-10-23T14:29:28.628Z,21.12
2022-10-23T14:31:56.302Z,21.11
2022-10-23T14:34:23.794Z,21.25
2022-10-23T14:37:03.726Z,21.27
2022-10-23T14:39:40.359Z,21.18
2022-10-23T14:42:07.593Z,20.91
2022-10-23T14:44:34.449Z,21.00
2022-10-23T14:47:03.989Z,20.30
2022-10-23T14:49:41.193Z,20.24
2022-10-23T14:54:48.724Z,20.58
2022-10-23T14:57:42.688Z,20.56
2022-10-23T15:00:16.703Z,19.61
2022-10-23T15:02:51.279Z,20.08
2022-10-23T15:08:07.853Z,20.61
2022-10-23T15:10:37.233Z,20.77
2022-10-23T15:15:50.564Z,19.66
2022-10-23T15:18:17.854Z,19.72
2022-10-23T15:24:03.337Z,20.13
2022-10-23T15:26:30.804Z,19.91
2022-10-23T15:28:58.488Z,19.82
2022-10-23T15:31:25.621Z,20.08
2022-10-23T15:33:52.803Z,20.12
2022-10-23T15:36:20.391Z,19.96
2022-10-23T15:38:50.526Z,20.32
2022-10-23T15:44:06.186Z,20.64
2022-10-23T15:46:33.674Z,19.92
2022-10-23T15:49:03.570Z,19.71
2022-10-23T15:51:30.650Z,19.92
2022-10-23T15:54:02.116Z,19.92
2022-10-23T15:56:35.038Z,19.11
2022-10-23T15:59:03.797Z,18.96
2022-10-23T16:01:35.474Z,18.58
2022-10-23T16:04:03.024Z,18.67
2022-10-23T16:06:33.471Z,18.67
2022-10-23T16:11:40.728Z,20.18
2022-10-23T16:14:09.927Z,20.45
2022-10-23T16:16:37.391Z,20.28
2022-10-23T16:19:04.153Z,20.24
2022-10-23T16:21:31.680Z,20.15
2022-10-23T16:24:01.976Z,20.01
2022-10-23T16:26:34.097Z,19.56
2022-10-23T16:29:01.010Z,19.29
2022-10-23T16:31:28.770Z,18.64
2022-10-23T16:36:29.335Z,19.47
2022-10-23T16:38:58.234Z,19.72
2022-10-23T16:41:30.001Z,19.16
2022-10-23T16:44:04.505Z,19.53
2022-10-23T16:46:33.458Z,19.30
2022-10-23T16:49:02.560Z,19.76
2022-10-23T16:51:33.705Z,19.27
2022-10-23T16:54:01.500Z,19.01
2022-10-23T16:56:28.656Z,19.67
2022-10-23T17:01:27.361Z,19.28
2022-10-23T17:03:54.948Z,19.34
2022-10-23T17:06:25.444Z,20.23
2022-10-23T17:09:04.761Z,20.36
2022-10-23T17:11:31.556Z,20.06
2022-10-23T17:13:59.406Z,20.73
2022-10-23T17:16:29.713Z,20.64
2022-10-23T17:18:57.626Z,20.32
2022-10-23T17:21:24.572Z,20.27
2022-10-23T17:23:52.521Z,19.57
2022-10-23T17:26:20.101Z,19.60
2022-10-23T17:28:48.934Z,19.06
2022-10-23T17:31:18.691Z,18.86
2022-10-23T17:33:46.084Z,18.86
2022-10-23T17:39:36.500Z,19.42
2022-10-23T17:42:05.897Z,18.87
2022-10-23T17:44:32.944Z,18.11
2022-10-23T17:47:01.586Z,17.68
2022-10-23T17:49:28.829Z,17.80
2022-10-23T17:51:57.829Z,17.73
2022-10-23T17:54:24.829Z,17.94
2022-10-23T17:56:51.723Z,17.96
2022-10-23T17:59:19.350Z,18.51
2022-10-23T18:01:46.247Z,18.27
2022-10-23T18:04:15.877Z,18.50
2022-10-23T18:06:53.518Z,18.66
2022-10-23T18:09:22.276Z,18.82
2022-10-23T18:11:49.524Z,19.20
2022-10-23T18:14:16.388Z,19.25
2022-10-23T18:16:43.269Z,19.38
2022-10-23T18:19:10.617Z,19.86
2022-10-23T18:21:41.215Z,20.02
2022-10-23T18:24:10.443Z,20.37
2022-10-23T18:26:38.204Z,20.53
2022-10-23T18:29:05.986Z,20.71
2022-10-23T18:31:34.808Z,20.69
2022-10-23T18:34:02.607Z,21.00
2022-10-23T18:36:31.832Z,20.91
2022-10-23T18:41:40.135Z,20.02
2022-10-23T18:44:11.478Z,19.56
2022-10-23T18:46:39.047Z,19.72
2022-10-23T18:49:06.624Z,20.28
2022-10-23T18:51:35.328Z,19.68
2022-10-23T18:54:02.283Z,19.47
2022-10-23T18:56:29.236Z,19.56
2022-10-23T18:58:56.347Z,20.12
2022-10-23T19:01:25.102Z,20.10
2022-10-23T19:03:52.978Z,19.89
2022-10-23T19:06:19.956Z,18.89
2022-10-23T19:08:46.789Z,19.15
2022-10-23T19:11:14.176Z,18.18
2022-10-23T19:13:41.082Z,17.72
2022-10-23T19:16:07.888Z,17.17
2022-10-23T19:18:38.293Z,17.71
2022-10-23T19:21:05.067Z,17.42
2022-10-23T19:23:31.977Z,17.14
2022-10-23T19:26:07.693Z,16.39
2022-10-23T19:28:37.679Z,16.47
2022-10-23T19:31:05.248Z,16.60
2022-10-23T19:33:32.215Z,17.08
2022-10-23T19:36:05.046Z,17.46
2022-10-23T19:38:42.885Z,17.47
2022-10-23T19:41:09.812Z,17.59
2022-10-23T19:43:36.883Z,17.18
2022-10-23T19:46:06.307Z,16.94
2022-10-23T19:48:37.917Z,16.95
2022-10-23T19:51:05.596Z,17.03
2022-10-23T19:53:32.564Z,16.82
2022-10-23T19:55:59.385Z,16.70
2022-10-23T19:58:26.924Z,17.07
2022-10-23T20:00:53.818Z,16.81
2022-10-23T20:03:21.389Z,17.26
2022-10-23T20:05:50.132Z,17.23
2022-10-23T20:08:17.236Z,17.40
2022-10-23T20:10:44.074Z,17.56
2022-10-23T20:13:20.139Z,17.63
2022-10-23T20:15:47.312Z,17.53
2022-10-23T20:18:14.876Z,17.45
2022-10-23T20:20:41.967Z,17.89
2022-10-23T20:23:09.079Z,18.22
2022-10-23T20:25:35.977Z,17.97
2022-10-23T20:28:02.670Z,17.85
2022-10-23T20:30:30.271Z,17.33
2022-10-23T20:32:59.197Z,17.44
2022-10-23T20:35:26.883Z,17.51
2022-10-23T20:37:53.759Z,17.47
2022-10-23T20:40:20.653Z,17.39
2022-10-23T20:42:47.721Z,17.16
2022-10-23T20:45:14.652Z,17.14
2022-10-23T20:47:45.320Z,17.52
2022-10-23T20:50:14.693Z,17.97
2022-10-23T20:52:41.652Z,18.10
2022-10-23T20:55:08.472Z,18.78
2022-10-23T20:57:36.091Z,19.18
2022-10-23T21:00:03.918Z,18.66
2022-10-23T21:02:35.392Z,18.73
2022-10-23T21:05:02.922Z,19.33
2022-10-23T21:07:30.842Z,18.89
2022-10-23T21:09:59.099Z,18.72
2022-10-23T21:12:25.890Z,18.43
2022-10-23T21:14:53.188Z,18.38
2022-10-23T21:17:27.646Z,17.88
2022-10-23T21:19:55.096Z,17.69
2022-10-23T21:22:22.794Z,18.15
2022-10-23T21:24:49.862Z,18.23
2022-10-23T21:27:16.723Z,17.79
2022-10-23T21:29:43.967Z,18.01
2022-10-23T21:32:22.210Z,18.16
2022-10-23T21:34:49.263Z,17.98
2022-10-23T21:37:16.481Z,17.62
2022-10-23T21:39:45.711Z,18.16
2022-10-23T21:42:15.562Z,18.04
2022-10-23T21:44:44.076Z,17.76
2022-10-23T21:47:12.811Z,17.99
2022-10-23T21:49:39.867Z,18.20
2022-10-23T21:52:06.932Z,17.86
2022-10-23T21:54:33.670Z,18.21
2022-10-23T21:57:01.209Z,18.50
2022-10-23T21:59:33.147Z,19.00
2022-10-23T22:02:02.876Z,19.75
2022-10-23T22:04:30.520Z,19.59
2022-10-23T22:06:57.191Z,19.94
2022-10-23T22:09:25.341Z,20.38
2022-10-23T22:11:52.224Z,20.19
2022-10-23T22:14:21.502Z,20.10
2022-10-23T22:16:48.430Z,19.57
2022-10-23T22:19:15.165Z,18.36
2022-10-23T22:21:42.484Z,18.10
2022-10-23T22:24:11.535Z,17.96
2022-10-23T22:26:40.663Z,18.92
2022-10-23T22:29:09.121Z,18.80
2022-10-23T22:31:39.648Z,18.64
2022-10-23T22:34:18.567Z,18.66
2022-10-23T22:36:53.223Z,18.19
2022-10-23T22:39:19.837Z,18.18
2022-10-23T22:41:46.914Z,17.84
2022-10-23T22:44:13.818Z,17.54
2022-10-23T22:46:40.807Z,17.10
2022-10-23T22:49:07.419Z,16.83
2022-10-23T22:51:38.727Z,17.30
2022-10-23T22:54:06.141Z,17.09
2022-10-23T22:56:34.698Z,17.56
2022-10-23T22:59:02.105Z,17.31
2022-10-23T23:01:29.163Z,17.76
2022-10-23T23:03:58.183Z,18.06
2022-10-23T23:06:28.163Z,17.88
2022-10-23T23:08:55.817Z,18.29
2022-10-23T23:11:22.913Z,18.18
2022-10-23T23:13:49.922Z,18.69
2022-10-23T23:16:16.646Z,18.42
2022-10-23T23:18:44.514Z,17.81
2022-10-23T23:21:11.438Z,16.97
2022-10-23T23:23:38.313Z,17.03
2022-10-23T23:26:05.027Z,17.14
2022-10-23T23:28:36.276Z,17.20
2022-10-23T23:31:03.873Z,17.42
2022-10-23T23:33:32.871Z,17.08
2022-10-23T23:36:01.121Z,17.13
2022-10-23T23:38:28.278Z,17.42
2022-10-23T23:40:56.783Z,17.16
2022-10-23T23:43:24.305Z,17.30
2022-10-23T23:45:51.316Z,17.24
2022-10-23T23:48:18.272Z,17.66
2022-10-23T23:50:47.405Z,17.93
2022-10-23T23:53:14.501Z,17.68
2022-10-23T23:58:10.866Z,18.38
